Time;durP1;ratioP1;P1;durP2;ratioP2;P2;SDS_P1;SDS_P2;PMS_P1;PMS_P2;Temp;Humidity;BMP_temperature;BMP_pressure;BME280_temperature;BME280_humidity;BME280_pressure;Samples;Min_cycle;Max_cycle;Signal;HPM_P1;HPM_P2
2021/03/08 00:00:10;;;;;;;9.57;8.20;;;14.90;49.10;;;;;;5091987;28;20024;-59
2021/03/08 00:05:11;;;;;;;9.45;7.95;;;14.80;69.00;;;;;;4970365;28;20159;-57
2021/03/08 00:07:38;;;;;;;12.43;9.40;;;14.80;49.10;;;;;;4972685;28;20338;-56
2021/03/08 00:10:04;;;;;;;9.27;7.80;;;14.80;49.20;;;;;;4972965;28;20023;-56
2021/03/08 00:12:30;;;;;;;11.60;8.70;;;14.80;49.30;;;;;;4973141;28;20030;-56
2021/03/08 00:14:56;;;;;;;11.43;8.13;;;14.50;49.20;;;;;;4972710;28;20039;-56
2021/03/08 00:17:21;;;;;;;10.48;8.63;;;14.80;49.40;;;;;;4972638;28;20098;-56
2021/03/08 00:19:47;;;;;;;10.15;8.70;;;14.80;49.40;;;;;;4972801;28;20038;-57
2021/03/08 00:22:12;;;;;;;10.98;9.05;;;14.60;49.40;;;;;;4975391;28;20086;-56
2021/03/08 00:24:38;;;;;;;10.10;8.95;;;14.70;49.40;;;;;;4976918;28;20035;-56
2021/03/08 00:27:04;;;;;;;11.43;8.82;;;14.70;49.50;;;;;;4959448;28;20023;-56
2021/03/08 00:29:29;;;;;;;9.60;8.43;;;14.70;49.60;;;;;;4976784;28;20485;-56
2021/03/08 00:31:55;;;;;;;10.13;7.88;;;14.70;49.60;;;;;;4976871;28;20015;-57
2021/03/08 00:34:20;;;;;;;10.57;8.63;;;14.70;50.20;;;;;;4976464;28;20657;-56
2021/03/08 00:36:46;;;;;;;9.80;8.27;;;14.70;49.70;;;;;;4976664;28;20023;-56
2021/03/08 00:39:11;;;;;;;10.55;8.05;;;14.70;49.70;;;;;;4976649;28;20054;-57
2021/03/08 00:41:37;;;;;;;10.45;8.40;;;14.70;49.70;;;;;;4976284;28;20067;-56
2021/03/08 00:44:04;;;;;;;10.82;8.30;;;14.60;49.70;;;;;;4976833;28;20030;-57
2021/03/08 00:46:29;;;;;;;10.70;8.73;;;14.30;69.10;;;;;;4976580;28;20034;-57
2021/03/08 00:48:55;;;;;;;10.63;8.27;;;14.60;49.80;;;;;;4976674;28;20027;-56
2021/03/08 00:51:20;;;;;;;10.15;8.63;;;14.40;49.70;;;;;;4976484;28;20023;-56
2021/03/08 00:53:46;;;;;;;11.10;8.07;;;14.60;49.90;;;;;;4976108;28;20035;-56
2021/03/08 00:56:12;;;;;;;10.68;8.90;;;14.60;49.90;;;;;;4976536;28;20031;-57
2021/03/08 00:58:37;;;;;;;10.60;8.93;;;14.60;50.00;;;;;;4976324;28;20536;-55
2021/03/08 01:01:03;;;;;;;9.57;7.82;;;14.80;69.80;;;;;;4976146;28;20026;-55
2021/03/08 01:03:28;;;;;;;9.80;8.32;;;14.50;50.00;;;;;;4989663;28;20105;-56
2021/03/08 01:05:54;;;;;;;9.23;8.02;;;14.50;50.00;;;;;;4995474;28;20033;-56
2021/03/08 01:08:20;;;;;;;9.88;7.88;;;14.50;50.10;;;;;;4978014;28;20041;-56
2021/03/08 01:10:45;;;;;;;10.35;8.38;;;14.50;69.80;;;;;;4977973;28;20023;-56
2021/03/08 01:13:11;;;;;;;10.77;8.73;;;14.50;50.10;;;;;;4995370;28;20491;-57
2021/03/08 01:15:37;;;;;;;10.80;8.25;;;14.30;71.00;;;;;;4995287;28;20027;-56
2021/03/08 01:18:03;;;;;;;10.55;7.78;;;14.50;50.20;;;;;;4995589;28;20034;-57
2021/03/08 01:20:28;;;;;;;9.70;8.10;;;14.50;50.20;;;;;;4995483;28;20025;-56
2021/03/08 01:22:54;;;;;;;10.57;8.65;;;14.40;50.20;;;;;;4978045;28;20026;-56
2021/03/08 01:25:28;;;;;;;10.55;8.77;;;14.20;50.10;;;;;;4995321;28;20353;-56
2021/03/08 01:27:55;;;;;;;9.82;8.30;;;14.40;50.30;;;;;;4995193;28;20034;-55
2021/03/08 01:30:23;;;;;;;10.75;8.75;;;14.40;50.30;;;;;;4995579;28;20033;-57
2021/03/08 01:32:49;;;;;;;10.57;7.95;;;14.40;50.30;;;;;;4994792;28;20092;-56
2021/03/08 01:35:15;;;;;;;9.57;8.20;;;14.40;50.30;;;;;;4994910;28;20080;-55
2021/03/08 01:37:41;;;;;;;11.07;8.27;;;14.30;50.40;;;;;;4995266;28;20043;-55
2021/03/08 01:40:09;;;;;;;9.70;8.43;;;14.40;50.40;;;;;;4995256;28;20143;-56
2021/03/08 01:42:36;;;;;;;10.38;8.05;;;14.40;50.40;;;;;;4994818;28;20023;-57
2021/03/08 01:45:03;;;;;;;11.10;8.68;;;14.40;50.50;;;;;;4977343;28;20026;-57
2021/03/08 01:47:28;;;;;;;10.20;8.13;;;14.40;50.50;;;;;;4977251;28;20026;-57
2021/03/08 01:49:54;;;;;;;11.38;8.55;;;14.20;70.40;;;;;;4995010;28;20083;-56
2021/03/08 01:52:20;;;;;;;9.27;7.80;;;14.30;50.50;;;;;;4994981;28;20541;-56
2021/03/08 01:54:46;;;;;;;11.07;8.35;;;14.30;50.60;;;;;;4994874;28;20030;-55
2021/03/08 01:57:12;;;;;;;11.30;8.43;;;14.30;50.60;;;;;;4994991;28;20368;-58
2021/03/08 01:59:38;;;;;;;10.05;7.93;;;14.30;50.60;;;;;;4994561;28;20034;-56
2021/03/08 02:02:06;;;;;;;8.68;7.78;;;14.40;70.80;;;;;;4994710;28;20033;-57
2021/03/08 02:04:31;;;;;;;11.23;8.45;;;14.20;50.60;;;;;;4978516;28;20058;-57
2021/03/08 02:06:57;;;;;;;11.80;8.90;;;14.20;50.60;;;;;;4994346;28;20073;-57
2021/03/08 02:09:23;;;;;;;10.70;8.75;;;14.30;50.80;;;;;;4976923;28;20022;-56
2021/03/08 02:12:00;;;;;;;9.85;8.35;;;14.20;50.70;;;;;;4994316;28;20527;-56
2021/03/08 02:15:01;;;;;;;10.40;8.20;;;14.20;71.20;;;;;;4994239;28;20039;-56
2021/03/08 02:17:30;;;;;;;;;;;14.20;50.70;;;;;;4994987;28;20029;-56
2021/03/08 02:20:34;;;;;;;12.50;8.48;;;14.20;50.80;;;;;;4994066;28;19905;-56
2021/03/08 02:23:17;;;;;;;10.32;8.48;;;14.20;50.80;;;;;;4994412;28;20022;-57
2021/03/08 02:26:13;;;;;;;9.68;7.90;;;14.20;50.80;;;;;;4994400;28;20049;-56
2021/03/08 02:29:02;;;;;;;11.43;8.77;;;14.20;50.90;;;;;;4993969;28;20480;-56
2021/03/08 02:31:31;;;;;;;10.52;8.45;;;14.20;51.00;;;;;;4994203;28;20023;-56
2021/03/08 02:34:07;;;;;;;11.13;8.88;;;14.10;50.90;;;;;;4993802;28;20564;-56
2021/03/08 02:36:49;;;;;;;9.32;8.07;;;14.10;50.90;;;;;;4976632;28;20097;-57
2021/03/08 02:39:25;;;;;;;12.25;8.75;;;13.90;50.90;;;;;;4994042;28;20130;-57
2021/03/08 02:41:53;;;;;;;9.38;8.30;;;14.10;51.00;;;;;;4994020;28;20073;-56
2021/03/08 02:44:22;;;;;;;9.57;8.15;;;14.10;51.00;;;;;;4992968;28;20073;-57
2021/03/08 02:46:50;;;;;;;9.63;8.00;;;14.10;51.70;;;;;;4976226;28;20106;-56
2021/03/08 02:49:20;;;;;;;11.70;8.43;;;14.10;51.10;;;;;;4993876;28;20026;-56
2021/03/08 02:51:51;;;;;;;9.57;8.40;;;14.10;51.10;;;;;;4993558;28;20029;-57
2021/03/08 02:54:19;;;;;;;10.13;8.38;;;14.10;51.10;;;;;;4993404;28;20504;-56
2021/03/08 02:56:46;;;;;;;9.13;7.88;;;14.10;51.20;;;;;;4993458;28;20065;-57
2021/03/08 02:59:13;;;;;;;10.20;7.80;;;14.10;51.20;;;;;;4993637;28;20022;-57
2021/03/08 03:01:42;;;;;;;10.02;8.25;;;14.00;51.20;;;;;;4993668;28;20037;-56
2021/03/08 03:04:09;;;;;;;9.95;8.00;;;14.00;51.20;;;;;;4995351;28;20054;-57
2021/03/08 03:06:36;;;;;;;9.77;8.00;;;13.80;51.10;;;;;;4993225;28;20508;-56
2021/03/08 03:09:10;;;;;;;9.07;7.47;;;14.10;51.30;;;;;;4993317;28;20053;-56
2021/03/08 03:11:38;;;;;;;11.23;8.00;;;13.90;71.40;;;;;;4993498;28;20022;-56
2021/03/08 03:14:05;;;;;;;9.55;7.80;;;14.00;51.20;;;;;;4993312;28;20030;-57
2021/03/08 03:16:31;;;;;;;11.70;8.50;;;14.10;51.30;;;;;;4993188;28;20041;-57
2021/03/08 03:19:00;;;;;;;10.85;7.90;;;14.00;51.20;;;;;;4993156;28;20026;-54
2021/03/08 03:21:29;;;;;;;9.88;8.15;;;14.00;51.30;;;;;;4993388;28;20389;-56
2021/03/08 03:23:57;;;;;;;11.10;7.60;;;14.00;51.30;;;;;;4993366;28;20085;-55
2021/03/08 03:26:24;;;;;;;9.45;7.78;;;14.00;71.60;;;;;;4993001;28;20032;-57
2021/03/08 03:28:50;;;;;;;9.88;7.70;;;14.00;51.30;;;;;;4993241;28;20061;-56
2021/03/08 03:31:17;;;;;;;10.90;8.38;;;14.00;51.40;;;;;;4992987;28;20428;-57
2021/03/08 03:33:44;;;;;;;10.73;8.38;;;14.00;51.40;;;;;;4992989;28;20067;-56
2021/03/08 03:36:10;;;;;;;10.60;8.07;;;13.90;51.40;;;;;;4992880;28;20023;-57
2021/03/08 03:38:36;;;;;;;9.68;8.32;;;14.10;51.50;;;;;;4993036;28;20048;-55
2021/03/08 03:41:03;;;;;;;9.68;7.88;;;13.90;51.40;;;;;;4992802;28;20018;-55
2021/03/08 03:43:29;;;;;;;10.77;8.35;;;13.90;51.50;;;;;;4993021;28;20049;-57
2021/03/08 03:45:55;;;;;;;11.60;8.60;;;13.80;51.50;;;;;;4992630;28;20038;-56
2021/03/08 03:48:20;;;;;;;9.70;8.15;;;13.90;51.50;;;;;;4992933;28;20014;-56
2021/03/08 03:50:46;;;;;;;9.93;8.23;;;13.90;51.50;;;;;;4975206;28;20026;-56
2021/03/08 03:53:12;;;;;;;10.48;8.07;;;13.90;51.60;;;;;;4975196;28;20027;-56
2021/03/08 03:55:37;;;;;;;10.70;8.48;;;13.90;51.60;;;;;;4992605;28;20106;-56
2021/03/08 03:58:19;;;;;;;9.77;8.25;;;13.80;51.60;;;;;;4992434;28;20026;-56
2021/03/08 04:00:58;;;;;;;8.00;7.20;;;13.90;51.60;;;;;;4992551;28;20484;-56
2021/03/08 04:03:41;;;;;;;8.73;7.30;;;13.80;51.60;;;;;;4994549;28;20032;-57
2021/03/08 04:06:09;;;;;;;10.35;8.57;;;13.90;51.60;;;;;;5012092;28;20064;-58
2021/03/08 04:08:38;;;;;;;9.48;8.38;;;13.80;51.60;;;;;;4994662;28;20030;-57
2021/03/08 04:11:06;;;;;;;10.07;8.02;;;13.60;51.50;;;;;;5011972;28;20030;-55
2021/03/08 04:13:33;;;;;;;10.98;8.52;;;13.80;51.70;;;;;;5012006;28;20100;-55
2021/03/08 04:15:59;;;;;;;8.20;7.07;;;13.80;51.20;;;;;;4994338;28;20049;-56
2021/03/08 04:18:27;;;;;;;10.52;8.00;;;13.80;51.70;;;;;;5011990;28;20022;-56
2021/03/08 04:20:57;;;;;;;9.15;7.05;;;13.80;52.30;;;;;;5012181;28;20116;-57
2021/03/08 04:23:23;;;;;;;9.52;8.05;;;13.80;51.70;;;;;;5012158;28;20025;-56
2021/03/08 04:25:49;;;;;;;9.75;8.10;;;13.80;51.70;;;;;;5011954;28;20025;-56
2021/03/08 04:28:15;;;;;;;10.82;7.95;;;13.70;51.70;;;;;;5012038;28;20084;-56
2021/03/08 04:30:45;;;;;;;8.60;7.65;;;13.70;51.70;;;;;;5011913;28;20036;-56
2021/03/08 04:33:13;;;;;;;9.38;7.40;;;13.80;51.80;;;;;;5012146;28;20053;-57
2021/03/08 04:35:41;;;;;;;11.05;7.55;;;13.70;51.80;;;;;;5011808;28;20069;-57
2021/03/08 04:38:07;;;;;;;9.95;7.50;;;13.70;51.80;;;;;;5012103;28;20072;-57
2021/03/08 04:40:34;;;;;;;9.07;7.70;;;13.70;51.80;;;;;;5011788;28;20073;-57
2021/03/08 04:43:06;;;;;;;12.15;8.55;;;13.70;51.90;;;;;;5012134;28;20162;-57
2021/03/08 04:45:32;;;;;;;9.35;7.50;;;13.70;51.80;;;;;;5012016;28;20025;-57
2021/03/08 04:48:01;;;;;;;10.10;7.75;;;13.70;51.90;;;;;;5012039;28;20243;-56
2021/03/08 04:50:28;;;;;;;10.18;8.05;;;13.70;51.90;;;;;;5011774;28;20054;-57
2021/03/08 04:52:55;;;;;;;8.02;7.22;;;13.70;51.90;;;;;;5011713;28;20026;-57
2021/03/08 04:55:26;;;;;;;8.18;7.30;;;13.60;51.80;;;;;;5004574;28;20030;-56
2021/03/08 04:57:51;;;;;;;9.88;7.97;;;13.70;51.90;;;;;;5011630;28;20380;-56
2021/03/08 05:00:18;;;;;;;8.93;7.88;;;13.70;51.90;;;;;;5010118;28;20026;-57
2021/03/08 05:02:44;;;;;;;9.05;7.20;;;13.60;51.90;;;;;;5011479;28;20026;-59
2021/03/08 05:05:12;;;;;;;9.38;7.93;;;13.60;51.90;;;;;;4996376;28;20050;-56
2021/03/08 05:07:40;;;;;;;9.65;7.95;;;13.60;51.90;;;;;;4993644;28;20022;-56
2021/03/08 05:10:09;;;;;;;9.52;7.53;;;13.60;52.00;;;;;;4977944;28;20593;-56
2021/03/08 05:12:37;;;;;;;9.13;7.68;;;13.60;51.90;;;;;;4995525;28;20472;-57
2021/03/08 05:15:07;;;;;;;11.60;8.02;;;13.40;51.80;;;;;;4995721;28;20034;-57
2021/03/08 05:17:35;;;;;;;9.40;7.63;;;13.60;52.00;;;;;;4962128;28;20034;-57
2021/03/08 05:20:03;;;;;;;9.45;7.47;;;13.60;52.00;;;;;;4995550;28;20316;-57
2021/03/08 05:22:30;;;;;;;8.80;7.65;;;13.60;52.00;;;;;;4978522;28;20037;-56
2021/03/08 05:24:55;;;;;;;10.02;8.35;;;13.40;51.90;;;;;;4995666;28;20018;-56
2021/03/08 05:27:21;;;;;;;9.20;7.80;;;13.60;52.10;;;;;;4977936;28;20495;-56
2021/03/08 05:29:49;;;;;;;9.60;7.28;;;13.60;52.00;;;;;;4995335;28;20033;-56
2021/03/08 05:32:23;;;;;;;9.23;7.68;;;13.60;52.00;;;;;;4995330;28;20136;-56
2021/03/08 05:34:51;;;;;;;10.20;8.23;;;13.50;52.00;;;;;;4995036;28;20548;-57
2021/03/08 05:37:18;;;;;;;8.65;7.35;;;13.50;52.00;;;;;;4995364;28;20028;-55
2021/03/08 05:39:45;;;;;;;11.70;7.80;;;13.50;52.00;;;;;;4995127;28;20023;-56
2021/03/08 05:42:18;;;;;;;9.43;7.90;;;13.60;52.10;;;;;;4995100;28;20030;-56
2021/03/08 05:45:00;;;;;;;13.50;8.40;;;13.50;52.10;;;;;;4994941;28;20085;-56
2021/03/08 05:47:53;;;;;;;10.60;7.78;;;13.50;52.20;;;;;;4995051;28;20147;-57
2021/03/08 05:50:37;;;;;;;9.73;7.93;;;13.50;52.20;;;;;;4994830;28;20023;-56
2021/03/08 05:53:21;;;;;;;9.55;7.90;;;13.60;52.30;;;;;;4977406;28;20081;-55
2021/03/08 05:55:53;;;;;;;9.75;7.72;;;13.60;72.90;;;;;;4994819;28;20109;-56
2021/03/08 05:58:52;;;;;;;10.05;8.18;;;13.60;52.50;;;;;;4994750;28;20365;-56
2021/03/08 06:01:39;;;;;;;9.32;7.53;;;13.50;52.50;;;;;;4994719;28;20035;-55
2021/03/08 06:04:44;;;;;;;8.63;7.05;;;13.50;52.60;;;;;;5000280;28;20096;-55
2021/03/08 06:07:24;;;;;;;8.30;6.47;;;13.50;73.70;;;;;;5014437;28;20034;-56
2021/03/08 06:10:04;;;;;;;7.53;6.50;;;13.70;53.80;;;;;;5014186;28;20129;-56
2021/03/08 06:12:34;;;;;;;7.57;5.93;;;13.80;54.20;;;;;;5014077;28;20071;-54
2021/03/08 06:15:20;;;;;;;;;;;13.90;53.60;;;;;;5014749;28;20088;-55
2021/03/08 06:17:48;;;;;;;7.03;5.68;;;14.10;53.40;;;;;;5014195;28;19967;-56
2021/03/08 06:20:14;;;;;;;7.57;5.30;;;14.20;53.50;;;;;;5013876;28;20559;-53
2021/03/08 06:22:40;;;;;;;6.40;5.32;;;14.30;53.30;;;;;;5014024;28;20104;-56
2021/03/08 06:25:06;;;;;;;7.75;6.07;;;14.40;53.20;;;;;;5013776;28;20025;-55
2021/03/08 06:27:32;;;;;;;6.78;5.53;;;14.40;53.20;;;;;;4996456;28;20022;-54
2021/03/08 06:29:58;;;;;;;6.85;5.60;;;14.50;53.10;;;;;;4996143;28;20481;-54
2021/03/08 06:32:24;;;;;;;6.63;5.60;;;14.60;53.10;;;;;;5013762;28;20026;-55
2021/03/08 06:34:50;;;;;;;7.25;5.95;;;14.60;53.00;;;;;;5013866;28;20448;-54
2021/03/08 06:37:18;;;;;;;5.90;5.15;;;14.60;52.80;;;;;;5013666;28;20097;-55
2021/03/08 06:39:45;;;;;;;7.63;5.20;;;14.70;52.80;;;;;;5013508;28;20030;-54
2021/03/08 06:42:13;;;;;;;8.23;5.63;;;14.70;52.80;;;;;;5013818;28;20026;-54
2021/03/08 06:44:39;;;;;;;5.78;5.05;;;14.80;52.70;;;;;;5013508;28;20037;-55
2021/03/08 06:47:06;;;;;;;6.45;5.07;;;14.80;52.60;;;;;;5013371;28;20380;-55
2021/03/08 06:49:32;;;;;;;5.43;4.93;;;14.80;52.50;;;;;;5013218;28;20033;-53
2021/03/08 06:52:11;;;;;;;6.65;4.95;;;14.90;52.40;;;;;;5013678;28;20380;-54
2021/03/08 06:54:42;;;;;;;6.80;4.53;;;14.90;52.40;;;;;;5013359;28;20070;-54
2021/03/08 06:57:20;;;;;;;;;;;15.00;52.40;;;;;;5013761;28;20018;-54
2021/03/08 07:00:08;;;;;;;6.45;4.93;;;15.00;52.10;;;;;;5013083;28;19909;-55
2021/03/08 07:02:45;;;;;;;6.60;4.55;;;15.10;52.10;;;;;;5012937;28;20018;-55
2021/03/08 07:05:12;;;;;;;6.65;4.97;;;15.20;71.60;;;;;;5013517;28;20125;-55
2021/03/08 07:07:55;;;;;;;4.95;4.45;;;15.20;51.80;;;;;;5011907;28;20083;-53
2021/03/08 07:10:38;;;;;;;5.43;4.68;;;15.30;51.80;;;;;;5011589;28;20034;-55
2021/03/08 07:13:11;;;;;;;6.50;4.25;;;15.40;51.70;;;;;;5013105;28;20116;-55
2021/03/08 07:16:00;;;;;;;9.05;5.20;;;15.40;51.90;;;;;;5012797;28;20034;-54
2021/03/08 07:18:33;;;;;;;7.82;4.78;;;15.50;52.60;;;;;;5013178;28;20485;-54
2021/03/08 07:21:19;;;;;;;9.00;5.10;;;15.50;51.90;;;;;;5013133;28;20113;-53
2021/03/08 07:23:48;;;;;;;8.00;4.35;;;15.60;51.80;;;;;;5012694;28;20026;-52
2021/03/08 07:26:19;;;;;;;7.00;4.78;;;15.60;51.70;;;;;;5012984;28;20041;-55
2021/03/08 07:29:14;;;;;;;10.43;5.13;;;15.60;51.50;;;;;;5012609;28;20137;-54
2021/03/08 07:31:42;;;;;;;5.90;4.80;;;15.60;51.40;;;;;;5012559;28;20018;-55
2021/03/08 07:34:09;;;;;;;7.85;5.47;;;15.60;51.30;;;;;;5012853;28;20088;-56
2021/03/08 07:36:55;;;;;;;14.57;5.60;;;15.50;51.10;;;;;;5012774;28;20108;-56
2021/03/08 07:39:20;;;;;;;6.28;5.20;;;15.50;51.10;;;;;;5012815;28;20033;-56
2021/03/08 07:41:57;;;;;;;8.07;5.43;;;15.40;51.00;;;;;;4994896;28;20044;-56
2021/03/08 07:44:24;;;;;;;5.75;4.93;;;15.40;51.00;;;;;;5012420;28;20076;-56
2021/03/08 07:46:51;;;;;;;7.32;4.80;;;15.40;51.10;;;;;;5012361;28;20029;-55
2021/03/08 07:49:17;;;;;;;6.05;5.40;;;15.40;51.10;;;;;;5000167;28;20022;-56
2021/03/08 07:52:02;;;;;;;7.63;5.28;;;15.40;51.00;;;;;;4992791;28;20029;-55
2021/03/08 07:54:28;;;;;;;6.93;5.05;;;15.40;51.40;;;;;;4992577;28;20221;-55
2021/03/08 07:56:56;;;;;;;6.47;5.20;;;15.40;51.30;;;;;;4992396;28;20029;-55
2021/03/08 07:59:22;;;;;;;8.20;4.97;;;15.40;51.30;;;;;;4992280;28;20022;-53
2021/03/08 08:01:49;;;;;;;8.90;5.60;;;15.40;51.40;;;;;;4992273;28;20026;-54
2021/03/08 08:04:21;;;;;;;7.55;5.50;;;15.50;51.90;;;;;;4989305;28;20043;-54
2021/03/08 08:06:54;;;;;;;9.90;6.10;;;15.50;51.90;;;;;;4973277;28;20035;-54
2021/03/08 08:09:21;;;;;;;6.45;5.18;;;15.40;51.50;;;;;;4973027;28;20034;-56
2021/03/08 08:11:47;;;;;;;7.45;5.80;;;15.40;51.40;;;;;;4972845;28;20018;-56
2021/03/08 08:14:13;;;;;;;8.50;5.88;;;15.20;51.10;;;;;;4972993;28;20031;-56
2021/03/08 08:16:42;;;;;;;8.77;5.55;;;15.40;51.20;;;;;;4973166;28;20038;-54
2021/03/08 08:19:09;;;;;;;7.95;5.57;;;15.40;51.20;;;;;;4973176;28;20038;-56
2021/03/08 08:21:38;;;;;;;8.05;4.97;;;15.40;51.30;;;;;;4972801;28;20015;-55
2021/03/08 08:24:09;;;;;;;6.30;5.03;;;15.40;51.20;;;;;;4972917;28;20030;-56
2021/03/08 08:26:36;;;;;;;7.50;5.45;;;15.40;51.20;;;;;;4972818;28;20030;-54
2021/03/08 08:29:02;;;;;;;6.15;5.00;;;15.30;51.10;;;;;;4955566;28;20058;-55
2021/03/08 08:31:27;;;;;;;7.97;5.57;;;15.40;51.10;;;;;;4972920;28;20106;-52
2021/03/08 08:33:54;;;;;;;6.32;5.30;;;15.40;51.20;;;;;;4973064;28;20438;-55
2021/03/08 08:36:25;;;;;;;6.80;5.32;;;15.30;51.10;;;;;;4972854;28;20035;-56
2021/03/08 08:38:54;;;;;;;7.07;4.82;;;15.20;51.10;;;;;;4972820;28;20030;-56
2021/03/08 08:41:28;;;;;;;7.32;4.95;;;15.30;51.10;;;;;;4973023;28;20054;-53
2021/03/08 08:44:15;;;;;;;8.35;5.00;;;15.30;51.00;;;;;;4976308;28;20026;-54
2021/03/08 08:46:42;;;;;;;7.95;5.13;;;15.30;51.10;;;;;;4976447;28;20484;-54
2021/03/08 08:49:21;;;;;;;5.57;4.45;;;15.30;51.10;;;;;;4976223;28;20433;-56
2021/03/08 08:51:47;;;;;;;6.53;5.40;;;15.20;51.10;;;;;;4976565;28;20090;-55
2021/03/08 08:54:28;;;;;;;7.45;5.72;;;15.20;51.00;;;;;;4976166;28;20298;-55
2021/03/08 08:57:12;;;;;;;6.80;5.32;;;15.20;51.00;;;;;;4976337;28;20038;-55
2021/03/08 08:59:48;;;;;;;8.32;5.45;;;15.20;51.00;;;;;;4976571;28;20035;-54
2021/03/08 09:02:22;;;;;;;5.88;4.72;;;15.30;50.90;;;;;;4958548;28;20031;-56
2021/03/08 09:04:48;;;;;;;5.03;4.35;;;15.30;50.80;;;;;;4985340;28;20082;-55
2021/03/08 09:07:21;;;;;;;5.28;4.20;;;15.30;50.70;;;;;;4995511;28;20492;-56
2021/03/08 09:09:47;;;;;;;7.90;4.70;;;15.30;50.70;;;;;;4995411;28;20034;-55
2021/03/08 09:12:33;;;;;;;6.88;4.32;;;15.40;50.80;;;;;;4995878;28;20026;-55
2021/03/08 09:15:07;;;;;;;7.47;4.60;;;15.30;50.70;;;;;;4995388;28;20038;-55
2021/03/08 09:17:43;;;;;;;4.88;3.90;;;15.30;50.80;;;;;;4995292;28;20621;-53
2021/03/08 09:20:09;;;;;;;6.07;4.30;;;15.40;50.70;;;;;;4994685;28;20031;-56
2021/03/08 09:22:47;;;;;;;4.95;3.95;;;15.40;50.60;;;;;;4994293;28;20615;-55
2021/03/08 09:25:17;;;;;;;5.05;3.97;;;15.50;50.50;;;;;;4995441;28;20066;-55
2021/03/08 09:27:44;;;;;;;;;;;15.50;50.50;;;;;;4995668;28;20023;-54
2021/03/08 09:30:15;;;;;;;6.57;4.55;;;15.60;50.50;;;;;;4995075;28;19958;-56
2021/03/08 09:33:05;;;;;;;4.35;3.85;;;15.70;50.40;;;;;;4995302;28;20026;-56
2021/03/08 09:35:44;;;;;;;6.10;3.75;;;15.70;69.60;;;;;;4995055;28;20389;-56
2021/03/08 09:38:21;;;;;;;4.53;4.10;;;15.70;50.40;;;;;;4994739;28;20048;-56
2021/03/08 09:40:52;;;;;;;6.13;4.15;;;15.70;50.30;;;;;;4995227;28;20068;-49
2021/03/08 09:43:21;;;;;;;6.82;3.67;;;15.80;50.50;;;;;;5014495;28;20021;-49
2021/03/08 09:46:07;;;;;;;5.37;3.80;;;15.80;50.60;;;;;;5014558;28;20018;-49
2021/03/08 09:48:37;;;;;;;6.95;4.78;;;15.80;50.80;;;;;;5014138;28;20046;-47
2021/03/08 09:51:12;;;;;;;6.05;4.75;;;15.80;50.80;;;;;;5014617;28;20373;-48
2021/03/08 09:53:48;;;;;;;6.07;4.85;;;15.80;50.80;;;;;;5013943;28;20022;-49
2021/03/08 09:56:19;;;;;;;5.45;4.40;;;15.90;50.80;;;;;;5014794;28;20376;-50
2021/03/08 09:58:45;;;;;;;6.05;4.30;;;15.90;50.70;;;;;;5014616;28;20408;-47
2021/03/08 10:01:22;;;;;;;6.07;4.75;;;16.00;50.70;;;;;;5014339;28;20024;-49
2021/03/08 10:03:48;;;;;;;5.47;4.43;;;16.20;50.50;;;;;;5014203;28;20021;-54
2021/03/08 10:06:26;;;;;;;7.57;5.13;;;16.00;50.30;;;;;;4996149;28;20058;-48
2021/03/08 10:08:51;;;;;;;5.45;4.47;;;16.20;50.50;;;;;;4994739;28;20045;-48
2021/03/08 10:11:22;;;;;;;8.07;4.90;;;16.20;50.70;;;;;;4994431;28;20461;-49
2021/03/08 10:13:47;;;;;;;;;;;16.20;51.00;;;;;;4977354;28;20046;-50
2021/03/08 10:16:19;;;;;;;6.63;4.13;;;16.20;51.10;;;;;;4994420;28;19984;-51
2021/03/08 10:18:45;;;;;;;5.10;3.97;;;16.20;51.10;;;;;;4994406;28;20154;-50
2021/03/08 10:21:10;;;;;;;5.18;4.28;;;16.20;51.10;;;;;;4994311;28;20105;-55
2021/03/08 10:23:36;;;;;;;6.07;4.30;;;16.20;51.10;;;;;;4994486;28;20022;-53
2021/03/08 10:26:10;;;;;;;5.78;3.78;;;16.30;51.20;;;;;;4994192;28;20512;-55
2021/03/08 10:28:50;;;;;;;6.38;4.35;;;16.30;51.10;;;;;;4994370;28;20550;-54
2021/03/08 10:31:26;;;;;;;6.63;3.70;;;16.70;51.40;;;;;;4994096;28;20128;-55
2021/03/08 10:33:54;;;;;;;5.28;3.97;;;16.30;51.20;;;;;;4994270;28;20046;-56
2021/03/08 10:36:22;;;;;;;4.85;4.05;;;16.30;51.70;;;;;;4994091;28;20058;-55
2021/03/08 10:38:58;;;;;;;4.50;3.90;;;16.30;52.00;;;;;;4993811;28;20034;-52
2021/03/08 10:41:26;;;;;;;5.68;4.50;;;16.10;51.60;;;;;;4994082;28;20030;-53
2021/03/08 10:43:55;;;;;;;4.30;3.90;;;16.30;51.80;;;;;;4993997;28;20026;-49
2021/03/08 10:46:28;;;;;;;7.97;4.55;;;16.30;51.70;;;;;;4978995;28;20033;-48
2021/03/08 10:49:04;;;;;;;7.55;4.25;;;16.30;72.50;;;;;;5012114;28;20053;-54
2021/03/08 10:51:32;;;;;;;5.63;4.50;;;16.30;53.00;;;;;;5033190;28;20013;-56
2021/03/08 10:54:06;;;;;;;5.13;4.22;;;16.30;54.70;;;;;;5033182;28;20103;-51
2021/03/08 10:56:33;;;;;;;6.45;4.70;;;16.30;56.20;;;;;;5033175;28;20033;-51
2021/03/08 10:59:00;;;;;;;6.68;5.43;;;16.30;56.50;;;;;;5015122;28;20021;-48
2021/03/08 11:01:27;;;;;;;8.52;5.10;;;16.30;58.10;;;;;;5033083;28;20021;-52
2021/03/08 11:03:54;;;;;;;7.50;4.97;;;16.20;59.40;;;;;;5032671;28;20028;-54
2021/03/08 11:06:21;;;;;;;7.63;4.95;;;16.20;61.50;;;;;;5031504;28;20124;-54
2021/03/08 11:09:01;;;;;;;7.18;5.75;;;16.30;63.00;;;;;;5033125;28;20045;-53
2021/03/08 11:11:35;;;;;;;8.40;5.75;;;16.30;64.50;;;;;;5032961;28;20025;-55
2021/03/08 11:14:02;;;;;;;5.63;4.85;;;16.30;66.00;;;;;;5032539;28;20080;-55
2021/03/08 11:16:29;;;;;;;7.03;5.32;;;16.30;67.10;;;;;;5032690;28;20463;-53
2021/03/08 11:19:17;;;;;;;6.75;5.50;;;16.30;68.00;;;;;;5032678;28;20025;-54
2021/03/08 11:21:44;;;;;;;5.88;5.28;;;16.30;68.80;;;;;;5014831;28;20406;-54
2021/03/08 11:24:22;;;;;;;6.70;5.88;;;16.30;69.50;;;;;;5032752;28;20049;-56
2021/03/08 11:27:15;;;;;;;5.70;5.07;;;16.40;70.00;;;;;;5032185;28;20097;-56
2021/03/08 11:29:55;;;;;;;4.72;4.32;;;16.40;70.70;;;;;;5032686;28;20072;-55
2021/03/08 11:32:23;;;;;;;5.35;4.85;;;16.40;71.00;;;;;;5032648;28;20352;-56
2021/03/08 11:34:51;;;;;;;5.93;5.32;;;16.50;71.50;;;;;;5032313;28;20042;-56
2021/03/08 11:37:20;;;;;;;5.88;5.25;;;16.60;71.80;;;;;;5032629;28;20021;-56
2021/03/08 11:39:47;;;;;;;5.07;4.57;;;16.50;72.00;;;;;;5032640;28;20049;-54
2021/03/08 11:42:15;;;;;;;5.80;4.93;;;16.50;72.30;;;;;;5032250;28;20439;-54
2021/03/08 11:44:41;;;;;;;6.13;5.53;;;16.30;72.40;;;;;;5032487;28;20022;-57
2021/03/08 11:47:07;;;;;;;5.53;4.63;;;16.50;72.50;;;;;;5032129;28;20075;-51
2021/03/08 11:49:33;;;;;;;5.10;4.60;;;16.70;72.70;;;;;;5032392;28;20391;-55
2021/03/08 11:51:59;;;;;;;5.50;4.68;;;16.50;72.50;;;;;;5032370;28;20029;-55
2021/03/08 11:54:25;;;;;;;5.80;5.05;;;16.50;72.70;;;;;;5032156;28;20360;-55
2021/03/08 11:56:51;;;;;;;5.07;4.57;;;16.50;72.90;;;;;;5032073;28;20802;-55
2021/03/08 11:59:17;;;;;;;4.97;4.57;;;16.50;72.90;;;;;;5031850;28;20037;-55
2021/03/08 12:01:43;;;;;;;5.47;4.97;;;16.50;73.00;;;;;;5031896;28;20101;-55
2021/03/08 12:04:09;;;;;;;4.95;4.45;;;16.50;73.00;;;;;;5032250;28;20128;-59
2021/03/08 12:06:34;;;;;;;5.93;5.32;;;16.50;73.10;;;;;;5030733;28;20056;-52
2021/03/08 12:09:00;;;;;;;4.50;4.07;;;16.50;73.10;;;;;;5032190;28;20033;-55
2021/03/08 12:11:26;;;;;;;6.03;4.25;;;16.50;73.70;;;;;;5031892;28;20024;-54
2021/03/08 12:13:51;;;;;;;4.43;3.97;;;16.50;91.70;;;;;;5032072;28;20029;-52
2021/03/08 12:16:17;;;;;;;4.43;4.03;;;16.50;73.10;;;;;;5033967;28;20048;-54
2021/03/08 12:18:42;;;;;;;4.50;4.10;;;16.50;73.10;;;;;;5038558;28;20112;-54
2021/03/08 12:21:08;;;;;;;4.00;3.70;;;16.50;73.10;;;;;;5020533;28;20115;-55
2021/03/08 12:23:34;;;;;;;4.68;3.80;;;16.40;73.00;;;;;;5038204;28;20025;-56
2021/03/08 12:25:59;;;;;;;4.60;4.20;;;16.40;72.90;;;;;;5038554;28;20025;-55
2021/03/08 12:28:25;;;;;;;4.15;3.85;;;16.40;73.00;;;;;;5020386;28;20020;-56
2021/03/08 12:30:52;;;;;;;4.65;4.20;;;16.40;72.90;;;;;;5038435;28;20121;-54
2021/03/08 12:33:18;;;;;;;4.18;3.88;;;16.40;72.90;;;;;;5020483;28;20031;-56
2021/03/08 12:35:44;;;;;;;4.00;3.70;;;16.40;72.80;;;;;;5038236;28;20387;-55
2021/03/08 12:38:09;;;;;;;4.18;3.88;;;16.40;90.90;;;;;;5038315;28;20068;-55
2021/03/08 12:40:35;;;;;;;4.00;3.70;;;16.40;72.80;;;;;;5020858;28;20041;-57
2021/03/08 12:43:02;;;;;;;3.90;3.47;;;16.30;72.70;;;;;;5038815;28;20048;-56
2021/03/08 12:45:28;;;;;;;4.03;3.72;;;16.30;72.70;;;;;;5038031;28;20029;-56
2021/03/08 12:47:53;;;;;;;4.22;3.92;;;16.30;72.60;;;;;;5038109;28;20021;-55
2021/03/08 12:50:19;;;;;;;3.83;3.53;;;16.30;72.60;;;;;;5038063;28;20051;-54
2021/03/08 12:52:45;;;;;;;3.78;3.47;;;16.30;72.60;;;;;;5038115;28;20025;-55
2021/03/08 12:55:11;;;;;;;3.50;3.20;;;16.30;72.50;;;;;;5037966;28;20048;-56
2021/03/08 12:57:37;;;;;;;3.60;3.30;;;16.30;72.40;;;;;;5037915;28;20024;-55
2021/03/08 13:00:07;;;;;;;3.35;3.15;;;16.20;72.30;;;;;;5038258;28;20021;-56
2021/03/08 13:02:33;;;;;;;4.07;3.72;;;16.20;72.40;;;;;;5020184;28;20518;-55